Time;durP1;ratioP1;P1;durP2;ratioP2;P2;SDS_P1;SDS_P2;PMS_P1;PMS_P2;Temp;Humidity;BMP_temperature;BMP_pressure;BME280_temperature;BME280_humidity;BME280_pressure;Samples;Min_cycle;Max_cycle;Signal;HPM_P1;HPM_P2
2021/05/21 00:01:34;;;;;;;5.73;1.90;;;14.90;1.00;;;;;;5076732;28;20201;-81
2021/05/21 00:04:00;;;;;;;2.80;1.20;;;14.90;1.00;;;;;;5077706;28;20573;-79
2021/05/21 00:06:26;;;;;;;5.37;1.40;;;15.00;1.00;;;;;;5076643;28;20204;-79
2021/05/21 00:08:52;;;;;;;4.03;1.33;;;14.90;1.00;;;;;;5084296;28;20729;-79
2021/05/21 00:11:18;;;;;;;3.10;1.40;;;14.90;1.00;;;;;;5090681;28;20173;-77
2021/05/21 00:13:43;;;;;;;2.87;1.60;;;14.90;1.00;;;;;;5076712;28;20176;-78
2021/05/21 00:16:09;;;;;;;6.40;1.63;;;14.90;1.00;;;;;;5088995;28;20198;-79
2021/05/21 00:18:35;;;;;;;5.03;1.50;;;14.80;1.00;;;;;;5082891;28;20168;-80
2021/05/21 00:21:00;;;;;;;4.27;1.37;;;14.90;1.00;;;;;;5081880;28;20173;-78
2021/05/21 00:23:26;;;;;;;2.87;1.40;;;14.80;1.00;;;;;;5091150;28;20179;-79
2021/05/21 00:25:52;;;;;;;2.37;1.30;;;14.80;1.00;;;;;;5076617;28;20231;-78
2021/05/21 00:28:17;;;;;;;3.17;1.60;;;14.80;1.00;;;;;;5087336;28;20184;-79
2021/05/21 00:30:43;;;;;;;5.17;1.43;;;14.80;1.00;;;;;;5067255;28;20212;-79
2021/05/21 00:33:09;;;;;;;3.87;1.67;;;14.80;1.00;;;;;;5079378;28;21104;-80
2021/05/21 00:35:34;;;;;;;3.87;1.27;;;14.80;1.00;;;;;;5073604;28;20730;-79
2021/05/21 00:38:00;;;;;;;3.63;1.23;;;14.70;1.00;;;;;;5089954;28;20169;-79
2021/05/21 00:40:26;;;;;;;3.87;1.43;;;14.70;1.00;;;;;;5067407;28;20188;-78
2021/05/21 00:42:52;;;;;;;5.03;1.70;;;14.70;1.00;;;;;;5073788;28;20522;-78
2021/05/21 00:45:17;;;;;;;3.93;1.33;;;14.70;1.00;;;;;;5089779;28;20172;-78
2021/05/21 00:47:43;;;;;;;3.63;1.40;;;14.70;1.00;;;;;;5077520;28;20648;-79
2021/05/21 00:50:09;;;;;;;4.50;1.47;;;14.80;1.00;;;;;;5088475;28;20241;-79
2021/05/21 00:52:38;;;;;;;3.97;1.33;;;14.70;1.00;;;;;;5083567;28;20188;-80
2021/05/21 00:55:08;;;;;;;4.67;1.80;;;14.80;1.00;;;;;;5080543;28;20576;-78
2021/05/21 00:57:40;;;;;;;5.27;1.50;;;14.80;1.00;;;;;;5090704;28;20662;-79
2021/05/21 01:00:07;;;;;;;5.50;1.77;;;14.70;1.00;;;;;;5079178;28;20731;-81
2021/05/21 01:02:32;;;;;;;3.83;1.80;;;14.60;1.00;;;;;;5084909;28;20582;-81
2021/05/21 01:04:58;;;;;;;3.87;1.70;;;14.70;1.00;;;;;;5085619;28;20191;-81
2021/05/21 01:07:24;;;;;;;4.40;1.83;;;14.60;1.00;;;;;;5090274;28;20181;-80
2021/05/21 01:09:51;;;;;;;6.60;2.13;;;14.60;1.00;;;;;;5071850;28;20179;-78
2021/05/21 01:12:16;;;;;;;4.97;2.20;;;14.70;1.00;;;;;;5080692;28;20175;-80
2021/05/21 01:14:49;;;;;;;4.17;1.80;;;14.70;1.00;;;;;;5082973;28;20176;-82
2021/05/21 01:17:16;;;;;;;3.17;1.90;;;14.60;1.00;;;;;;5088851;28;20208;-82
2021/05/21 01:19:42;;;;;;;5.97;2.27;;;14.60;1.00;;;;;;5075506;28;20164;-80
2021/05/21 01:22:09;;;;;;;6.00;2.43;;;14.60;1.00;;;;;;5073724;28;20536;-79
2021/05/21 01:24:34;;;;;;;3.63;2.10;;;14.60;1.00;;;;;;5082580;28;20171;-80
2021/05/21 01:27:03;;;;;;;5.60;2.30;;;14.60;1.00;;;;;;5080795;28;20165;-80
2021/05/21 01:29:29;;;;;;;6.80;2.17;;;14.60;1.00;;;;;;5089810;28;20164;-78
2021/05/21 01:31:55;;;;;;;5.83;1.37;;;14.60;1.00;;;;;;5077324;28;20171;-80
2021/05/21 01:34:21;;;;;;;5.57;1.60;;;14.70;1.00;;;;;;5085871;28;20172;-80
2021/05/21 01:36:47;;;;;;;4.10;1.40;;;14.60;1.00;;;;;;5084157;28;20792;-79
2021/05/21 01:39:13;;;;;;;2.90;1.40;;;14.50;1.00;;;;;;5075917;28;20229;-79
2021/05/21 01:41:41;;;;;;;3.60;1.20;;;14.60;1.00;;;;;;5087991;28;20168;-78
2021/05/21 01:44:11;;;;;;;3.33;1.40;;;14.60;1.00;;;;;;5078218;28;20165;-79
2021/05/21 01:46:38;;;;;;;4.30;1.30;;;14.60;1.00;;;;;;5083447;28;20173;-82
2021/05/21 01:49:04;;;;;;;4.43;1.50;;;14.50;1.00;;;;;;5084948;28;20661;-82
2021/05/21 01:51:32;;;;;;;3.90;1.63;;;14.60;1.00;;;;;;5076422;28;20172;-79
2021/05/21 01:54:16;;;;;;;2.77;1.00;;;14.50;1.00;;;;;;5088824;28;20169;-79
2021/05/21 01:56:43;;;;;;;4.87;1.07;;;14.50;1.00;;;;;;5083027;28;20263;-78
2021/05/21 01:59:10;;;;;;;5.70;1.00;;;14.70;1.00;;;;;;5078976;28;20622;-80
2021/05/21 02:01:36;;;;;;;6.57;1.30;;;14.50;1.00;;;;;;5089525;28;20227;-78
2021/05/21 02:04:03;;;;;;;4.20;1.00;;;14.50;1.00;;;;;;5077785;28;20160;-79
2021/05/21 02:06:30;;;;;;;4.20;1.50;;;14.50;1.00;;;;;;5087882;28;20173;-79
2021/05/21 02:08:58;;;;;;;3.93;1.20;;;14.40;1.00;;;;;;5080482;28;20172;-80
2021/05/21 02:11:24;;;;;;;2.23;1.07;;;14.50;1.00;;;;;;5088848;28;20191;-81
2021/05/21 02:13:50;;;;;;;4.00;1.37;;;14.40;1.00;;;;;;5076145;28;20177;-77
2021/05/21 02:16:15;;;;;;;3.73;1.27;;;14.40;1.00;;;;;;5085957;28;20227;-80
2021/05/21 02:18:42;;;;;;;3.03;1.10;;;14.50;1.00;;;;;;5082909;28;20202;-78
2021/05/21 02:21:08;;;;;;;3.87;1.40;;;14.50;1.00;;;;;;5078688;28;20175;-78
2021/05/21 02:23:34;;;;;;;2.80;0.80;;;14.40;1.00;;;;;;5088055;28;20617;-79
2021/05/21 02:26:02;;;;;;;3.90;1.53;;;14.40;1.00;;;;;;5076809;28;20194;-78
2021/05/21 02:28:28;;;;;;;4.40;1.50;;;14.30;1.10;;;;;;5082962;28;20529;-78
2021/05/21 02:30:53;;;;;;;2.77;1.30;;;14.20;8.70;;;;;;5084562;28;20183;-80
2021/05/21 02:33:19;;;;;;;4.43;1.40;;;14.30;17.80;;;;;;5076987;28;20168;-80
2021/05/21 02:35:44;;;;;;;5.77;1.50;;;14.40;21.80;;;;;;5088816;28;20199;-80
2021/05/21 02:38:10;;;;;;;4.00;1.30;;;14.20;28.20;;;;;;5078449;28;20702;-81
2021/05/21 02:40:36;;;;;;;4.57;1.60;;;14.10;30.10;;;;;;5080953;28;20695;-80
2021/05/21 02:43:01;;;;;;;5.60;1.57;;;14.10;32.50;;;;;;5072153;28;20573;-80
2021/05/21 02:45:27;;;;;;;6.33;1.73;;;14.10;31.50;;;;;;5088981;28;20179;-78
2021/05/21 02:47:53;;;;;;;3.13;1.53;;;14.10;35.00;;;;;;5076016;28;20170;-78
2021/05/21 02:50:18;;;;;;;4.70;1.40;;;14.10;36.00;;;;;;5085299;28;20601;-80
2021/05/21 02:52:44;;;;;;;3.30;1.43;;;13.90;40.50;;;;;;5085442;28;20686;-79
2021/05/21 02:55:10;;;;;;;2.83;1.33;;;14.00;42.60;;;;;;5082014;28;20251;-78
2021/05/21 02:57:36;;;;;;;4.53;1.47;;;13.90;45.00;;;;;;5093030;28;20240;-78
2021/05/21 03:00:03;;;;;;;6.90;2.23;;;14.00;41.80;;;;;;5081044;28;20675;-80
2021/05/21 03:02:30;;;;;;;4.60;1.40;;;13.90;44.80;;;;;;5087400;28;20173;-79
2021/05/21 03:04:56;;;;;;;4.80;1.30;;;13.90;43.40;;;;;;5088196;28;20183;-79
2021/05/21 03:07:22;;;;;;;4.83;1.77;;;13.80;46.60;;;;;;5092215;28;20179;-77
2021/05/21 03:09:48;;;;;;;4.30;1.40;;;13.90;45.10;;;;;;5073150;28;20172;-79
2021/05/21 03:12:14;;;;;;;3.67;1.40;;;13.80;43.90;;;;;;5081898;28;20636;-78
2021/05/21 03:14:39;;;;;;;6.83;2.43;;;13.80;41.40;;;;;;5056539;28;20207;-77
2021/05/21 03:17:05;;;;;;;4.77;1.80;;;14.10;34.30;;;;;;5050828;28;20680;-79
2021/05/21 03:19:31;;;;;;;10.03;2.10;;;13.80;32.70;;;;;;5068932;28;20172;-77
2021/05/21 03:21:57;;;;;;;6.97;1.80;;;13.80;30.50;;;;;;5063260;28;20187;-77
2021/05/21 03:24:27;;;;;;;10.07;2.23;;;13.80;27.80;;;;;;5082646;28;20541;-79
2021/05/21 03:26:53;;;;;;;6.30;1.70;;;14.00;23.80;;;;;;5073903;28;20640;-79
2021/05/21 03:29:19;;;;;;;7.00;2.10;;;13.90;19.80;;;;;;5090070;28;20245;-79
2021/05/21 03:31:45;;;;;;;9.03;2.10;;;13.80;24.10;;;;;;5079070;28;20533;-79
2021/05/21 03:34:12;;;;;;;7.60;2.03;;;13.90;24.70;;;;;;5088544;28;20171;-80
2021/05/21 03:36:38;;;;;;;6.60;1.83;;;13.90;22.10;;;;;;5083724;28;20223;-80
2021/05/21 03:39:05;;;;;;;7.73;1.90;;;13.80;29.00;;;;;;5082055;28;20165;-79
2021/05/21 03:41:32;;;;;;;8.73;1.70;;;13.70;31.70;;;;;;5092175;28;20176;-81
2021/05/21 03:43:58;;;;;;;5.50;2.00;;;13.50;40.50;;;;;;5079554;28;20172;-79
2021/05/21 03:46:23;;;;;;;7.57;1.60;;;13.50;42.30;;;;;;5087573;28;20179;-79
2021/05/21 03:48:49;;;;;;;5.73;1.90;;;13.50;41.50;;;;;;5086808;28;20176;-77
2021/05/21 03:51:15;;;;;;;4.50;1.60;;;13.40;46.70;;;;;;5080153;28;20613;-79
2021/05/21 03:53:41;;;;;;;6.47;1.70;;;13.40;49.10;;;;;;5075048;28;20173;-78
2021/05/21 03:56:06;;;;;;;7.07;2.47;;;13.40;48.60;;;;;;5073609;28;20624;-79
2021/05/21 03:58:35;;;;;;;5.43;1.60;;;13.40;48.30;;;;;;5068140;28;20176;-80
2021/05/21 04:01:02;;;;;;;7.23;1.87;;;13.50;47.80;;;;;;5074904;28;20202;-79
2021/05/21 04:03:28;;;;;;;5.73;1.90;;;13.40;47.60;;;;;;5066789;28;20180;-79
2021/05/21 04:05:54;;;;;;;4.13;1.40;;;13.40;46.80;;;;;;5079142;28;20210;-82
2021/05/21 04:08:20;;;;;;;8.17;1.80;;;13.40;48.30;;;;;;5077460;28;20208;-81
2021/05/21 04:10:45;;;;;;;3.83;1.60;;;13.30;48.70;;;;;;5085682;28;20183;-82
2021/05/21 04:13:11;;;;;;;7.00;1.90;;;13.30;50.50;;;;;;5080590;28;20545;-79
2021/05/21 04:15:38;;;;;;;6.63;1.60;;;13.30;50.40;;;;;;5091199;28;20222;-80
2021/05/21 04:18:07;;;;;;;5.87;1.70;;;13.20;51.00;;;;;;5079787;28;20171;-78
2021/05/21 04:20:33;;;;;;;6.77;2.03;;;13.20;52.60;;;;;;5085334;28;20243;-79
2021/05/21 04:23:01;;;;;;;6.30;1.80;;;13.20;52.30;;;;;;5069324;28;20690;-81
2021/05/21 04:25:27;;;;;;;7.73;2.40;;;13.20;53.80;;;;;;5073611;28;20204;-79
2021/05/21 04:27:53;;;;;;;7.23;1.70;;;13.20;57.50;;;;;;5076066;28;20265;-79
2021/05/21 04:30:20;;;;;;;7.60;1.80;;;13.20;63.70;;;;;;5074277;28;20172;-77
2021/05/21 04:32:46;;;;;;;4.83;1.90;;;13.10;68.60;;;;;;5083773;28;20966;-80
2021/05/21 04:35:12;;;;;;;7.53;2.23;;;13.00;74.90;;;;;;5068298;28;20172;-78
2021/05/21 04:37:37;;;;;;;6.63;1.83;;;13.10;74.30;;;;;;5076260;28;20199;-79
2021/05/21 04:40:04;;;;;;;11.90;2.37;;;13.10;73.60;;;;;;5078103;28;20175;-79
2021/05/21 04:42:30;;;;;;;7.93;2.23;;;13.10;70.40;;;;;;5085429;28;20651;-80
2021/05/21 04:44:56;;;;;;;8.33;2.00;;;13.10;69.40;;;;;;5086662;28;20167;-80
2021/05/21 04:47:21;;;;;;;5.17;1.93;;;13.00;72.70;;;;;;5078467;28;20184;-80
2021/05/21 04:49:47;;;;;;;10.00;2.83;;;13.10;63.00;;;;;;5090335;28;20191;-78
2021/05/21 04:52:13;;;;;;;7.20;2.07;;;13.10;62.70;;;;;;5082130;28;20160;-79
2021/05/21 04:54:39;;;;;;;6.27;1.80;;;13.10;62.60;;;;;;5084466;28;20307;-77
2021/05/21 04:57:05;;;;;;;7.97;2.33;;;13.00;59.20;;;;;;5087644;28;20266;-78
2021/05/21 04:59:32;;;;;;;9.20;2.43;;;13.00;55.80;;;;;;5077226;28;20164;-78
2021/05/21 05:01:58;;;;;;;11.13;2.87;;;13.00;54.40;;;;;;5089829;28;20183;-79
2021/05/21 05:04:24;;;;;;;10.00;2.40;;;13.00;52.30;;;;;;5079671;28;20168;-80
2021/05/21 05:06:49;;;;;;;13.07;2.67;;;12.90;49.70;;;;;;5088787;28;20248;-80
2021/05/21 05:09:16;;;;;;;9.17;2.90;;;13.00;46.60;;;;;;5078539;28;20640;-81
2021/05/21 05:11:43;;;;;;;10.60;3.20;;;13.00;44.40;;;;;;5074457;28;20176;-78
2021/05/21 05:14:10;;;;;;;10.70;2.90;;;12.90;43.10;;;;;;5086685;28;20218;-82
2021/05/21 05:16:36;;;;;;;13.97;3.67;;;12.80;44.30;;;;;;5082116;28;20215;-80
2021/05/21 05:19:02;;;;;;;11.73;3.50;;;12.80;44.80;;;;;;5080278;28;20271;-82
2021/05/21 05:21:34;;;;;;;13.03;3.03;;;12.90;43.00;;;;;;5089824;28;20663;-78
2021/05/21 05:24:03;;;;;;;13.63;3.10;;;13.10;37.20;;;;;;5077837;28;20162;-78
2021/05/21 05:26:30;;;;;;;15.40;3.50;;;13.20;34.40;;;;;;5085851;28;20284;-79
2021/05/21 05:28:59;;;;;;;10.67;3.00;;;13.20;27.50;;;;;;5085077;28;20172;-82
2021/05/21 05:31:24;;;;;;;10.13;2.73;;;13.20;36.70;;;;;;5076818;28;20501;-77
2021/05/21 05:33:50;;;;;;;10.77;3.17;;;13.30;28.10;;;;;;5086506;28;20179;-79
2021/05/21 05:36:16;;;;;;;11.63;3.57;;;13.30;28.30;;;;;;5048453;28;20303;-78
2021/05/21 05:38:41;;;;;;;14.17;3.00;;;13.20;26.60;;;;;;5043490;28;20176;-78
2021/05/21 05:41:07;;;;;;;15.93;3.37;;;13.20;25.80;;;;;;5072348;28;20490;-80
2021/05/21 05:43:33;;;;;;;14.07;3.10;;;13.30;20.20;;;;;;5088740;28;20582;-80
2021/05/21 05:45:59;;;;;;;12.20;3.30;;;13.30;20.10;;;;;;5064413;28;20195;-80
2021/05/21 05:48:24;;;;;;;12.13;3.60;;;13.30;19.20;;;;;;5074950;28;20183;-80
2021/05/21 05:50:51;;;;;;;12.00;3.10;;;13.30;15.80;;;;;;5038800;28;20281;-80
2021/05/21 05:53:18;;;;;;;12.17;3.37;;;13.30;15.90;;;;;;5071794;28;20246;-79
2021/05/21 05:55:44;;;;;;;11.33;2.90;;;13.20;12.20;;;;;;5073928;28;20197;-79
2021/05/21 05:58:10;;;;;;;13.23;2.77;;;13.20;7.20;;;;;;5086770;28;20176;-78
2021/05/21 06:00:36;;;;;;;15.20;3.60;;;13.20;5.50;;;;;;5066812;28;20193;-79
2021/05/21 06:03:12;;;;;;;12.60;3.37;;;13.40;5.30;;;;;;5066038;28;20187;-78
2021/05/21 06:05:38;;;;;;;17.77;3.70;;;13.40;1.00;;;;;;5074989;28;20163;-78
2021/05/21 06:08:07;;;;;;;16.47;3.67;;;13.30;1.00;;;;;;5074663;28;20164;-81
2021/05/21 06:10:35;;;;;;;18.10;3.90;;;13.40;1.00;;;;;;5059495;28;20173;-82
2021/05/21 06:13:06;;;;;;;15.47;3.50;;;13.50;1.00;;;;;;5070332;28;20690;-82
2021/05/21 06:15:33;;;;;;;14.53;3.67;;;13.60;1.00;;;;;;5070542;28;21338;-81
2021/05/21 06:17:59;;;;;;;20.97;4.13;;;13.70;1.00;;;;;;5086891;28;20247;-80
2021/05/21 06:20:27;;;;;;;17.30;3.57;;;13.60;1.00;;;;;;5056034;28;20260;-80
2021/05/21 06:22:52;;;;;;;14.40;3.60;;;13.50;1.00;;;;;;5063532;28;20599;-80
2021/05/21 06:25:23;;;;;;;16.07;3.67;;;13.40;1.00;;;;;;5071171;28;20203;-80
2021/05/21 06:27:49;;;;;;;15.40;3.23;;;13.50;1.00;;;;;;5086351;28;20172;-81
2021/05/21 06:30:16;;;;;;;19.20;4.50;;;13.40;1.00;;;;;;5077923;28;20190;-79
2021/05/21 06:32:43;;;;;;;12.80;3.27;;;13.50;1.00;;;;;;5075673;28;20208;-80
2021/05/21 06:35:11;;;;;;;16.03;3.33;;;13.50;1.00;;;;;;5067483;28;20168;-80
2021/05/21 06:37:38;;;;;;;14.43;3.73;;;13.50;1.00;;;;;;5081389;28;20279;-81
2021/05/21 06:40:05;;;;;;;13.17;3.83;;;13.70;1.00;;;;;;5079686;28;20583;-79
2021/05/21 06:42:30;;;;;;;14.93;3.80;;;13.80;1.00;;;;;;5079272;28;20186;-81
2021/05/21 06:44:56;;;;;;;15.83;3.80;;;13.80;1.00;;;;;;5083610;28;20199;-79
2021/05/21 06:47:22;;;;;;;16.63;3.50;;;13.90;1.00;;;;;;5075011;28;20317;-79
2021/05/21 06:49:48;;;;;;;16.47;3.67;;;13.80;1.00;;;;;;5079897;28;20306;-80
2021/05/21 06:52:14;;;;;;;13.30;3.13;;;13.70;1.00;;;;;;5062309;28;20194;-80
2021/05/21 06:54:41;;;;;;;12.00;3.13;;;13.70;1.00;;;;;;5080709;28;20250;-80
2021/05/21 06:57:07;;;;;;;14.57;3.47;;;13.60;1.00;;;;;;5076592;28;20294;-78
2021/05/21 06:59:33;;;;;;;12.47;3.43;;;13.60;1.00;;;;;;5087058;28;20238;-82
2021/05/21 07:01:58;;;;;;;15.93;3.63;;;13.50;1.00;;;;;;5074255;28;20218;-80
2021/05/21 07:04:24;;;;;;;11.73;3.63;;;13.50;1.00;;;;;;5082633;28;20537;-80
2021/05/21 07:12:50;;;;;;;12.93;3.97;;;13.60;1.00;;;;;;5050328;22;20565;-81
2021/05/21 07:15:16;;;;;;;12.47;3.40;;;13.60;1.00;;;;;;5022400;28;20206;-80
2021/05/21 07:17:45;;;;;;;15.40;3.70;;;13.70;1.00;;;;;;5014783;28;20407;-80
2021/05/21 07:20:13;;;;;;;11.97;3.37;;;13.90;1.00;;;;;;5014505;28;20795;-78
2021/05/21 07:22:53;;;;;;;15.10;3.40;;;14.10;1.00;;;;;;4996867;28;20182;-79
2021/05/21 07:25:30;;;;;;;16.50;3.33;;;14.10;1.00;;;;;;4992692;28;20250;-80
2021/05/21 07:27:56;;;;;;;14.17;2.97;;;14.20;1.00;;;;;;5001208;28;20214;-80
2021/05/21 07:30:23;;;;;;;12.37;2.90;;;14.20;1.00;;;;;;5012849;28;20198;-81
2021/05/21 07:32:52;;;;;;;13.37;3.93;;;14.20;1.00;;;;;;5011745;28;20609;-80
2021/05/21 07:35:25;;;;;;;12.50;3.23;;;14.30;1.00;;;;;;5014659;28;20180;-80
2021/05/21 07:37:52;;;;;;;15.90;3.87;;;14.60;1.00;;;;;;5013616;28;20231;-80
2021/05/21 07:40:27;;;;;;;12.53;3.53;;;14.70;1.00;;;;;;5015152;28;20172;-79
2021/05/21 07:43:01;;;;;;;14.40;3.60;;;14.90;1.00;;;;;;5016531;28;20194;-80
2021/05/21 07:45:27;;;;;;;13.50;3.73;;;14.90;1.00;;;;;;5035139;28;20244;-79
2021/05/21 07:47:54;;;;;;;12.80;3.33;;;14.90;1.00;;;;;;5036967;28;20160;-79
2021/05/21 07:50:19;;;;;;;11.70;3.63;;;14.60;1.00;;;;;;5021129;28;20176;-80
2021/05/21 07:52:51;;;;;;;12.80;3.20;;;14.50;1.00;;;;;;5015075;28;20183;-79
2021/05/21 07:55:17;;;;;;;14.43;3.70;;;14.30;1.00;;;;;;5016287;28;20514;-82
2021/05/21 07:57:46;;;;;;;15.47;3.43;;;14.20;1.00;;;;;;5016594;28;20189;-79
2021/05/21 08:00:12;;;;;;;12.37;3.90;;;14.10;1.00;;;;;;5017474;28;20630;-80
2021/05/21 08:02:38;;;;;;;14.10;3.17;;;14.20;1.00;;;;;;5018153;28;20224;-79
2021/05/21 08:05:05;;;;;;;13.87;3.40;;;14.10;1.00;;;;;;5021039;28;20201;-79
2021/05/21 08:07:34;;;;;;;12.00;3.97;;;14.00;1.00;;;;;;5023009;28;20209;-80
2021/05/21 08:10:02;;;;;;;16.47;3.57;;;14.10;1.00;;;;;;5015961;28;20646;-81
2021/05/21 08:12:27;;;;;;;14.87;3.90;;;14.00;1.00;;;;;;5012942;28;20206;-80
2021/05/21 08:14:54;;;;;;;13.40;3.50;;;14.20;1.00;;;;;;5012947;28;20171;-79
2021/05/21 08:17:19;;;;;;;19.37;4.40;;;14.00;1.00;;;;;;5014789;28;20202;-79
2021/05/21 08:19:45;;;;;;;13.37;4.10;;;13.90;1.00;;;;;;5014867;28;20190;-80
2021/05/21 08:22:11;;;;;;;17.83;4.37;;;14.00;1.00;;;;;;5015659;28;20174;-80
2021/05/21 08:24:37;;;;;;;14.37;3.67;;;14.10;1.00;;;;;;5015367;28;20700;-81
2021/05/21 08:27:03;;;;;;;13.47;3.77;;;14.20;1.00;;;;;;5013698;28;20201;-80
2021/05/21 08:29:33;;;;;;;15.20;3.40;;;14.30;1.00;;;;;;5014944;28;20587;-80
2021/05/21 08:32:03;;;;;;;14.50;3.13;;;14.20;1.00;;;;;;5012409;28;20203;-80
2021/05/21 08:34:29;;;;;;;13.77;3.57;;;14.30;1.00;;;;;;5006913;28;20178;-80
2021/05/21 08:36:55;;;;;;;12.77;3.30;;;14.30;1.00;;;;;;5014617;28;20280;-80
2021/05/21 08:39:21;;;;;;;14.73;4.27;;;14.30;1.00;;;;;;5014614;28;20215;-81
2021/05/21 08:41:50;;;;;;;10.53;3.80;;;14.50;1.00;;;;;;5015389;28;20183;-80
2021/05/21 08:44:19;;;;;;;11.73;2.77;;;14.70;1.00;;;;;;5015221;28;20213;-82
2021/05/21 08:46:45;;;;;;;12.70;3.80;;;14.80;1.00;;;;;;5015634;28;20613;-81
2021/05/21 08:49:12;;;;;;;10.80;3.03;;;14.90;1.00;;;;;;5015573;28;20167;-81
2021/05/21 08:51:38;;;;;;;10.53;3.70;;;15.00;99.90;;;;;;5016171;28;20211;-81
2021/05/21 08:54:06;;;;;;;13.33;3.70;;;15.00;99.90;;;;;;5013796;28;20680;-81
2021/05/21 08:56:34;;;;;;;14.60;3.07;;;15.10;99.90;;;;;;5015253;28;20202;-81
2021/05/21 08:59:00;;;;;;;17.63;3.63;;;15.10;99.90;;;;;;5014448;28;20161;-82
2021/05/21 09:01:29;;;;;;;14.70;3.47;;;15.10;99.90;;;;;;5016213;28;20175;-83
2021/05/21 09:04:00;;;;;;;14.63;3.33;;;14.90;99.90;;;;;;5014774;28;20213;-82
2021/05/21 09:06:28;;;;;;;17.27;4.03;;;14.90;1.00;;;;;;5013739;28;20256;-81
2021/05/21 09:08:59;;;;;;;9.90;2.83;;;15.00;99.90;;;;;;5015360;28;20185;-80
2021/05/21 09:11:30;;;;;;;9.47;2.80;;;15.00;99.90;;;;;;5033855;28;20185;-81
2021/05/21 09:14:01;;;;;;;10.97;2.50;;;15.20;99.90;;;;;;5014365;28;20231;-81
2021/05/21 09:16:29;;;;;;;14.97;3.80;;;15.30;99.90;;;;;;5014106;28;20214;-81
2021/05/21 09:19:03;;;;;;;17.73;3.40;;;15.40;99.90;;;;;;5012670;28;20230;-81
2021/05/21 09:21:49;;;;;;;12.93;3.33;;;15.40;1.00;;;;;;5013948;28;20180;-81
2021/05/21 09:24:18;;;;;;;17.00;4.40;;;15.60;1.00;;;;;;5013848;28;20202;-81
2021/05/21 09:26:46;;;;;;;10.00;2.83;;;15.60;99.90;;;;;;5014962;28;20242;-80
2021/05/21 09:29:15;;;;;;;12.13;3.30;;;15.60;1.00;;;;;;5014307;28;20162;-80
2021/05/21 09:31:43;;;;;;;10.13;2.63;;;15.70;1.00;;;;;;5014996;28;20207;-81
2021/05/21 09:34:10;;;;;;;15.13;3.33;;;15.50;1.00;;;;;;5014693;28;20678;-80
2021/05/21 09:36:37;;;;;;;15.33;3.20;;;15.50;99.90;;;;;;5013504;28;20217;-81
2021/05/21 09:39:07;;;;;;;13.70;3.73;;;15.60;99.90;;;;;;5013986;28;20521;-80
2021/05/21 09:41:49;;;;;;;12.33;3.23;;;15.70;99.90;;;;;;5012457;28;20281;-81
2021/05/21 09:44:15;;;;;;;14.27;4.07;;;15.60;1.00;;;;;;4994842;28;20168;-81
2021/05/21 09:46:44;;;;;;;16.13;3.23;;;15.80;1.00;;;;;;4995796;28;20210;-81
2021/05/21 09:49:30;;;;;;;9.27;2.70;;;16.00;1.00;;;;;;4994323;28;20171;-81
2021/05/21 09:51:58;;;;;;;12.00;2.90;;;16.10;99.90;;;;;;4993861;28;20174;-82
2021/05/21 09:54:25;;;;;;;18.97;3.10;;;15.90;85.40;;;;;;4994044;28;20165;-81
2021/05/21 09:57:03;;;;;;;14.63;3.53;;;15.80;99.90;;;;;;4994721;28;20252;-81
2021/05/21 09:59:38;;;;;;;17.07;3.00;;;15.60;1.00;;;;;;4994659;28;20169;-82
2021/05/21 10:02:23;;;;;;;11.47;3.13;;;15.50;1.00;;;;;;4992748;28;20177;-82
2021/05/21 10:04:49;;;;;;;11.03;2.83;;;15.40;99.90;;;;;;4994326;28;20215;-81
2021/05/21 10:07:19;;;;;;;14.97;3.67;;;15.30;99.90;;;;;;4994308;28;20178;-81
2021/05/21 10:09:45;;;;;;;10.93;2.93;;;15.20;1.00;;;;;;4997943;28;20226;-81
2021/05/21 10:12:12;;;;;;;11.00;2.93;;;15.10;20.10;;;;;;4999825;28;20629;-82
2021/05/21 10:14:39;;;;;;;9.43;2.17;;;15.10;1.00;;;;;;5015552;28;20670;-81
2021/05/21 10:17:07;;;;;;;12.70;2.73;;;15.10;99.90;;;;;;5014768;28;20852;-81
2021/05/21 10:19:34;;;;;;;8.90;2.73;;;15.20;99.90;;;;;;5032040;28;20173;-81
2021/05/21 10:22:00;;;;;;;12.83;2.83;;;15.40;99.90;;;;;;5032458;28;20174;-81
2021/05/21 10:24:40;;;;;;;10.97;3.10;;;15.60;1.00;;;;;;5034219;28;20236;-82
2021/05/21 10:27:14;;;;;;;16.60;3.23;;;15.60;99.90;;;;;;5035065;28;20201;-83
2021/05/21 10:29:55;;;;;;;9.50;2.47;;;15.40;42.80;;;;;;5036465;28;20189;-83
2021/05/21 10:32:30;;;;;;;10.70;3.33;;;15.00;99.90;;;;;;5034161;28;20170;-83
2021/05/21 10:34:57;;;;;;;10.63;3.67;;;14.80;1.00;;;;;;5032912;28;20311;-83
2021/05/21 10:37:24;;;;;;;15.93;3.63;;;14.80;1.00;;;;;;5032772;28;20262;-82
2021/05/21 10:40:24;;;;;;;8.23;2.83;;;14.90;1.00;;;;;;5027557;28;20175;-82
2021/05/21 10:42:52;;;;;;;10.63;3.03;;;15.20;99.90;;;;;;5012617;28;20263;-81
2021/05/21 10:45:21;;;;;;;13.63;3.03;;;15.40;1.00;;;;;;5015332;28;20587;-81
2021/05/21 10:48:07;;;;;;;9.67;2.43;;;15.60;99.90;;;;;;5011975;28;20246;-81
2021/05/21 10:50:36;;;;;;;12.60;3.20;;;15.80;1.00;;;;;;5013020;28;20183;-81
2021/05/21 10:53:06;;;;;;;10.50;3.13;;;16.10;99.90;;;;;;5013232;28;20166;-81
2021/05/21 10:55:55;;;;;;;16.13;3.17;;;16.30;99.90;;;;;;5017939;28;20166;-82
2021/05/21 10:58:30;;;;;;;8.90;2.60;;;16.30;1.00;;;;;;5016030;28;20211;-84
2021/05/21 11:01:17;;;;;;;10.97;2.77;;;16.40;4.20;;;;;;5018884;28;20166;-82
2021/05/21 11:03:58;;;;;;;13.50;3.23;;;16.60;99.90;;;;;;5017810;28;20180;-81
2021/05/21 11:06:31;;;;;;;8.33;2.40;;;16.70;1.00;;;;;;5015036;28;20253;-81
2021/05/21 11:08:59;;;;;;;14.63;3.37;;;16.80;91.10;;;;;;5012830;28;20605;-81
2021/05/21 11:11:45;;;;;;;14.33;2.80;;;16.60;1.00;;;;;;5012681;28;20529;-81
2021/05/21 11:14:31;;;;;;;12.33;2.53;;;16.80;99.90;;;;;;5015017;28;20205;-82
2021/05/21 11:16:59;;;;;;;11.83;2.90;;;16.90;1.00;;;;;;5017397;28;20210;-81
2021/05/21 11:19:27;;;;;;;13.53;3.20;;;16.80;1.00;;;;;;5016978;28;20166;-81
2021/05/21 11:22:06;;;;;;;10.93;2.77;;;16.70;99.90;;;;;;5015884;28;20648;-82
2021/05/21 11:24:40;;;;;;;8.03;2.77;;;16.50;1.00;;;;;;5018009;28;20173;-81
2021/05/21 11:27:08;;;;;;;10.67;2.47;;;16.40;1.00;;;;;;5016652;28;20579;-80
2021/05/21 11:29:35;;;;;;;7.63;2.30;;;16.40;1.00;;;;;;5019485;28;20656;-79
2021/05/21 11:32:04;;;;;;;8.60;2.20;;;16.60;99.90;;;;;;5017659;28;20173;-81
2021/05/21 11:34:30;;;;;;;10.23;2.73;;;16.90;1.00;;;;;;5016557;28;20213;-80
2021/05/21 11:36:56;;;;;;;9.50;3.00;;;17.10;1.00;;;;;;5022492;28;20242;-80
2021/05/21 11:39:25;;;;;;;14.40;4.10;;;17.30;1.00;;;;;;5030259;28;20173;-81
2021/05/21 11:41:53;;;;;;;16.83;3.10;;;17.20;1.00;;;;;;5015378;28;20261;-81
2021/05/21 11:44:19;;;;;;;10.60;2.83;;;17.00;1.00;;;;;;5014645;28;20194;-80
2021/05/21 11:46:46;;;;;;;15.73;2.90;;;17.00;1.00;;;;;;5015907;28;20680;-81
2021/05/21 11:49:19;;;;;;;9.77;2.67;;;16.90;1.00;;;;;;5015769;28;20189;-81
2021/05/21 11:51:57;;;;;;;10.53;2.70;;;17.00;1.00;;;;;;5027857;28;20192;-81
2021/05/21 11:54:24;;;;;;;11.30;2.30;;;16.90;1.00;;;;;;5035334;28;20204;-82
2021/05/21 11:56:49;;;;;;;12.13;2.67;;;16.80;1.00;;;;;;5035532;28;20209;-82
2021/05/21 11:59:18;;;;;;;11.10;2.70;;;16.90;1.00;;;;;;5035609;28;20177;-80
2021/05/21 12:02:05;;;;;;;7.97;2.67;;;17.00;1.00;;;;;;5035390;28;20173;-81
2021/05/21 12:04:34;;;;;;;12.80;2.57;;;17.00;1.00;;;;;;5035556;28;20640;-80
2021/05/21 12:07:00;;;;;;;8.33;2.37;;;17.10;1.00;;;;;;5035735;28;20177;-81
2021/05/21 12:09:27;;;;;;;13.43;2.93;;;17.10;1.00;;;;;;5035366;28;20169;-82
2021/05/21 12:11:55;;;;;;;7.63;2.37;;;17.20;1.00;;;;;;5032563;28;20553;-81
2021/05/21 12:14:23;;;;;;;16.03;2.97;;;17.40;99.90;;;;;;5013821;28;20658;-81
2021/05/21 12:16:52;;;;;;;14.63;3.10;;;17.50;99.90;;;;;;5014792;28;20666;-81
2021/05/21 12:19:19;;;;;;;11.10;2.30;;;17.30;99.90;;;;;;5013910;28;20162;-81
2021/05/21 12:21:47;;;;;;;11.20;2.80;;;17.10;99.90;;;;;;5015257;28;20166;-81
2021/05/21 12:24:16;;;;;;;12.17;2.40;;;17.00;99.90;;;;;;5014904;28;20221;-80
2021/05/21 12:26:42;;;;;;;9.00;2.40;;;17.10;99.90;;;;;;5014561;28;20178;-81
2021/05/21 12:29:10;;;;;;;5.37;1.70;;;17.20;99.90;;;;;;5016051;28;20169;-80
2021/05/21 12:31:46;;;;;;;13.50;2.80;;;17.30;99.90;;;;;;5015057;28;20232;-79
2021/05/21 12:34:16;;;;;;;7.23;2.37;;;17.20;99.90;;;;;;5015444;28;20174;-80
2021/05/21 12:36:42;;;;;;;10.70;2.73;;;17.50;99.90;;;;;;5017737;28;20289;-81
2021/05/21 12:39:09;;;;;;;8.10;2.23;;;17.60;1.00;;;;;;5015822;28;20635;-79
2021/05/21 12:41:40;;;;;;;17.57;2.70;;;17.70;1.00;;;;;;5015796;28;20201;-80
2021/05/21 12:44:14;;;;;;;8.77;2.07;;;17.70;1.00;;;;;;5015774;28;20713;-82
2021/05/21 12:46:49;;;;;;;10.40;2.40;;;17.70;99.90;;;;;;5021962;28;20182;-80
2021/05/21 12:49:27;;;;;;;9.53;2.50;;;17.40;1.00;;;;;;5021318;28;20192;-81
2021/05/21 12:51:58;;;;;;;12.80;2.40;;;17.30;1.00;;;;;;5034403;28;20262;-81
2021/05/21 12:54:44;;;;;;;8.53;2.13;;;17.10;1.00;;;;;;5021317;28;20185;-82
2021/05/21 12:57:13;;;;;;;7.83;2.53;;;17.20;1.00;;;;;;5014955;28;20208;-80
2021/05/21 12:59:43;;;;;;;6.37;1.93;;;17.40;1.00;;;;;;5014047;28;20162;-80